"WATCHING THE WEATHER TO PROTECT LIFE AND PROPERTY"


ER ZIJN MOMENTEEL GEEN (VOOR)WAARSCHUWINGEN


Satelliet (InfraRood)


TNCA 250500Z 09015KT 9999 FEW018 29/25 Q1012 NOSIG
TNCB 250455Z AUTO 09010KT 9999 NCD 28/26 Q1012
TNCC 250500Z AUTO 11011KT 9999 FEW018 28/26 Q1012
TNCM 250500Z 07004KT 9999 FEW020 28/25 Q1015